createdAt,value
2023-03-22T00:00:33.841Z,7.81
2023-03-22T00:01:36.721Z,7.92
2023-03-22T00:02:38.382Z,7.85
2023-03-22T00:03:39.891Z,7.85
2023-03-22T00:04:42.475Z,7.83
2023-03-22T00:05:44.358Z,7.98
2023-03-22T00:06:45.947Z,7.95
2023-03-22T00:07:50.210Z,8.01
2023-03-22T00:08:53.094Z,8.05
2023-03-22T00:09:54.504Z,8.14
2023-03-22T00:10:55.907Z,8.08
2023-03-22T00:11:57.343Z,7.99
2023-03-22T00:12:59.142Z,8.04
2023-03-22T00:14:00.757Z,7.93
2023-03-22T00:15:02.329Z,7.83
2023-03-22T00:16:05.072Z,7.80
2023-03-22T00:17:06.556Z,7.76
2023-03-22T00:18:08.176Z,7.78
2023-03-22T00:19:09.597Z,7.74
2023-03-22T00:20:11.726Z,7.72
2023-03-22T00:21:15.379Z,7.76
2023-03-22T00:22:16.808Z,7.74
2023-03-22T00:23:18.554Z,7.78
2023-03-22T00:24:21.130Z,7.77
2023-03-22T00:25:22.980Z,7.85
2023-03-22T00:26:24.444Z,7.86
2023-03-22T00:27:26.012Z,7.90
2023-03-22T00:28:27.526Z,8.02
2023-03-22T00:29:29.011Z,7.99
2023-03-22T00:30:33.639Z,7.94
2023-03-22T00:31:35.123Z,7.93
2023-03-22T00:32:42.289Z,7.87
2023-03-22T00:33:43.685Z,7.94
2023-03-22T00:34:45.316Z,8.04
2023-03-22T00:35:54.804Z,8.01
2023-03-22T00:36:56.471Z,8.12
2023-03-22T00:38:05.838Z,8.10
2023-03-22T00:39:07.290Z,8.05
2023-03-22T00:40:12.291Z,8.01
2023-03-22T00:41:19.590Z,8.01
2023-03-22T00:42:21.363Z,7.96
2023-03-22T00:43:22.895Z,7.87
2023-03-22T00:44:24.357Z,7.92
2023-03-22T00:45:26.900Z,7.95
2023-03-22T00:46:28.383Z,7.94
2023-03-22T00:47:30.310Z,7.92
2023-03-22T00:48:31.846Z,7.92
2023-03-22T00:49:35.085Z,7.99
2023-03-22T00:50:37.944Z,7.99
2023-03-22T00:51:39.613Z,7.98
2023-03-22T00:52:41.042Z,7.99
2023-03-22T00:53:43.725Z,8.04
2023-03-22T00:54:45.598Z,7.99
2023-03-22T00:55:47.032Z,7.88
2023-03-22T00:56:49.830Z,7.92
2023-03-22T00:57:51.267Z,7.87
2023-03-22T00:58:52.686Z,7.96
2023-03-22T00:59:55.755Z,7.96
2023-03-22T01:00:57.314Z,7.96
2023-03-22T01:01:59.041Z,8.02
2023-03-22T01:03:04.620Z,8.08
2023-03-22T01:04:06.596Z,8.18
2023-03-22T01:05:08.597Z,8.24
2023-03-22T01:06:10.922Z,8.20
2023-03-22T01:07:17.826Z,8.25
2023-03-22T01:08:19.232Z,8.25
2023-03-22T01:09:23.805Z,8.25
2023-03-22T01:10:25.307Z,8.23
2023-03-22T01:11:27.566Z,8.14
2023-03-22T01:12:28.997Z,8.12
2023-03-22T01:13:30.475Z,8.10
2023-03-22T01:14:31.948Z,8.09
2023-03-22T01:15:34.052Z,8.16
2023-03-22T01:16:37.281Z,8.11
2023-03-22T01:17:38.767Z,8.08
2023-03-22T01:18:40.729Z,8.07
2023-03-22T01:19:42.325Z,8.15
2023-03-22T01:20:43.846Z,8.08
2023-03-22T01:21:45.896Z,8.26
2023-03-22T01:22:47.328Z,8.20
2023-03-22T01:23:48.770Z,8.19
2023-03-22T01:24:50.355Z,8.21
2023-03-22T01:25:51.830Z,8.12
2023-03-22T01:26:53.391Z,8.09
2023-03-22T01:27:54.832Z,8.10
2023-03-22T01:28:56.316Z,8.13
2023-03-22T01:29:57.881Z,8.08
2023-03-22T01:31:02.901Z,8.09
2023-03-22T01:32:04.665Z,8.02
2023-03-22T01:33:07.674Z,7.96
2023-03-22T01:34:09.129Z,7.95
2023-03-22T01:35:10.867Z,7.89
2023-03-22T01:36:12.403Z,7.92
2023-03-22T01:37:13.834Z,7.90
2023-03-22T01:38:15.264Z,8.03
2023-03-22T01:39:16.861Z,7.96
2023-03-22T01:40:18.386Z,7.88
2023-03-22T01:41:19.805Z,7.84
2023-03-22T01:42:23.045Z,7.93
2023-03-22T01:43:24.477Z,7.85
2023-03-22T01:44:30.516Z,7.82
2023-03-22T01:45:39.445Z,7.85
2023-03-22T01:46:42.326Z,7.85
2023-03-22T01:47:50.791Z,7.82
2023-03-22T01:48:53.135Z,7.83
2023-03-22T01:49:54.677Z,7.80
2023-03-22T01:51:10.273Z,7.77
2023-03-22T01:52:15.426Z,7.73
2023-03-22T01:53:19.151Z,7.77
2023-03-22T01:54:30.403Z,7.76
2023-03-22T01:55:33.267Z,7.82
2023-03-22T01:56:39.077Z,8.04
2023-03-22T01:57:42.852Z,7.96
2023-03-22T01:58:44.528Z,7.90
2023-03-22T01:59:47.368Z,7.86
2023-03-22T02:00:51.094Z,7.99
2023-03-22T02:01:52.555Z,7.94
2023-03-22T02:02:54.099Z,7.95
2023-03-22T02:04:07.145Z,7.85
2023-03-22T02:05:09.656Z,7.81
2023-03-22T02:06:11.132Z,7.80
2023-03-22T02:07:15.784Z,7.75
2023-03-22T02:08:17.750Z,7.78
2023-03-22T02:09:21.921Z,7.74
2023-03-22T02:10:26.613Z,7.69
2023-03-22T02:11:32.794Z,7.63
2023-03-22T02:12:50.836Z,7.66
2023-03-22T02:14:16.736Z,7.52
2023-03-22T02:15:24.395Z,7.74
2023-03-22T02:16:50.029Z,7.55
2023-03-22T02:18:21.627Z,7.51
2023-03-22T02:19:42.494Z,7.54
2023-03-22T02:21:14.597Z,7.48
2023-03-22T02:22:44.384Z,7.38
2023-03-22T02:24:17.044Z,7.40
2023-03-22T02:25:33.758Z,7.31
2023-03-22T02:26:54.379Z,7.24
2023-03-22T02:28:01.474Z,7.23
2023-03-22T02:29:12.772Z,7.21
2023-03-22T02:30:32.245Z,7.12
2023-03-22T02:31:58.240Z,7.07
2023-03-22T02:33:00.096Z,7.08
2023-03-22T02:34:38.741Z,7.12
2023-03-22T02:35:52.339Z,7.00
2023-03-22T02:37:12.751Z,7.08
2023-03-22T02:38:22.466Z,7.02
2023-03-22T02:39:46.688Z,7.02
2023-03-22T02:41:15.752Z,7.22
2023-03-22T02:42:56.161Z,7.10
2023-03-22T02:44:42.979Z,7.02
2023-03-22T02:46:26.593Z,6.97
2023-03-22T02:47:49.740Z,6.83
2023-03-22T02:49:00.524Z,6.80
2023-03-22T02:50:14.090Z,6.72
2023-03-22T02:51:22.457Z,6.72
2023-03-22T02:52:39.359Z,6.69
2023-03-22T02:53:41.112Z,6.74
2023-03-22T02:54:52.632Z,6.71
2023-03-22T02:56:41.101Z,6.84
2023-03-22T02:57:54.164Z,6.77
2023-03-22T02:58:59.475Z,6.80
2023-03-22T03:00:05.874Z,6.83
2023-03-22T03:01:13.302Z,6.78
2023-03-22T03:02:19.619Z,6.67
2023-03-22T03:03:25.447Z,6.90
2023-03-22T03:04:41.970Z,6.80
2023-03-22T03:05:47.013Z,6.76
2023-03-22T03:06:51.732Z,6.78
2023-03-22T03:07:59.415Z,6.71
2023-03-22T03:09:04.796Z,6.75
2023-03-22T03:10:07.427Z,6.75
2023-03-22T03:11:10.086Z,6.75
2023-03-22T03:12:25.149Z,6.79
2023-03-22T03:13:26.693Z,6.65
2023-03-22T03:14:32.570Z,6.72
2023-03-22T03:15:34.041Z,6.72
2023-03-22T03:16:36.669Z,6.72
2023-03-22T03:17:59.208Z,6.71
2023-03-22T03:19:02.364Z,6.70
2023-03-22T03:20:42.666Z,6.74
2023-03-22T03:22:22.261Z,6.66
2023-03-22T03:23:38.361Z,6.76
2023-03-22T03:24:49.018Z,6.90
2023-03-22T03:26:04.247Z,6.81
2023-03-22T03:27:13.228Z,6.83
2023-03-22T03:28:30.098Z,6.86
2023-03-22T03:29:46.487Z,6.79
2023-03-22T03:30:56.232Z,6.89
2023-03-22T03:32:16.353Z,6.81
2023-03-22T03:33:21.903Z,6.84
2023-03-22T03:34:32.227Z,6.74
2023-03-22T03:35:40.964Z,6.79
2023-03-22T03:36:50.096Z,6.89
2023-03-22T03:37:57.505Z,6.94
2023-03-22T03:39:01.017Z,6.87
2023-03-22T03:40:10.971Z,6.74
2023-03-22T03:41:21.855Z,6.77
2023-03-22T03:42:27.294Z,6.85
2023-03-22T03:43:28.795Z,6.85
2023-03-22T03:44:32.170Z,6.70
2023-03-22T03:45:35.926Z,6.69
2023-03-22T03:46:37.942Z,6.62
2023-03-22T03:47:39.404Z,6.60
2023-03-22T03:48:45.315Z,6.63
2023-03-22T03:49:46.978Z,6.54
2023-03-22T03:50:51.867Z,6.50
2023-03-22T03:51:55.831Z,6.47
2023-03-22T03:52:57.872Z,6.39
2023-03-22T03:53:59.308Z,6.35
2023-03-22T03:55:00.766Z,6.25
2023-03-22T03:56:02.234Z,6.25
2023-03-22T03:57:04.233Z,6.17
2023-03-22T03:58:05.658Z,6.12
2023-03-22T03:59:08.267Z,6.07
2023-03-22T04:00:10.402Z,6.08
2023-03-22T04:01:11.844Z,6.05
2023-03-22T04:02:13.396Z,6.00
2023-03-22T04:03:15.364Z,5.89
2023-03-22T04:04:26.174Z,5.96
2023-03-22T04:05:27.795Z,6.15
2023-03-22T04:06:29.277Z,6.15
2023-03-22T04:07:30.681Z,6.11
2023-03-22T04:08:32.088Z,6.26
2023-03-22T04:09:36.922Z,6.26
2023-03-22T04:10:38.673Z,6.24
2023-03-22T04:11:40.350Z,6.23
2023-03-22T04:12:41.892Z,6.24
2023-03-22T04:13:43.322Z,6.30
2023-03-22T04:14:44.889Z,6.32
2023-03-22T04:15:46.303Z,6.32
2023-03-22T04:16:47.988Z,6.30
2023-03-22T04:17:49.664Z,6.36
2023-03-22T04:18:51.806Z,6.38
2023-03-22T04:19:53.447Z,6.40
2023-03-22T04:20:57.165Z,6.40
2023-03-22T04:22:00.223Z,6.67
2023-03-22T04:23:01.654Z,6.68
2023-03-22T04:24:03.927Z,6.68
2023-03-22T04:25:11.668Z,6.67
2023-03-22T04:26:13.613Z,6.61
2023-03-22T04:27:15.042Z,6.71
2023-03-22T04:28:19.665Z,6.67
2023-03-22T04:29:22.092Z,6.69
2023-03-22T04:30:24.564Z,6.70
2023-03-22T04:31:26.094Z,6.64
2023-03-22T04:32:27.582Z,6.67
2023-03-22T04:33:32.367Z,6.72
2023-03-22T04:34:33.773Z,6.70
2023-03-22T04:35:35.424Z,6.69
2023-03-22T04:36:39.551Z,6.75
2023-03-22T04:37:43.034Z,6.69
2023-03-22T04:38:44.520Z,6.77
2023-03-22T04:39:46.097Z,6.68
2023-03-22T04:40:47.494Z,6.78
2023-03-22T04:41:48.949Z,6.72
2023-03-22T04:42:51.327Z,6.74
2023-03-22T04:43:52.763Z,6.78
2023-03-22T04:44:54.163Z,6.73
2023-03-22T04:45:58.137Z,6.83
2023-03-22T04:46:59.665Z,6.80
2023-03-22T04:48:01.145Z,6.77
2023-03-22T04:49:03.599Z,6.77
2023-03-22T04:50:06.755Z,6.88
2023-03-22T04:51:10.391Z,6.95
2023-03-22T04:52:11.812Z,6.90
2023-03-22T04:53:13.349Z,6.85
2023-03-22T04:54:14.817Z,6.88
2023-03-22T04:55:16.621Z,6.94
2023-03-22T04:56:18.268Z,6.91
2023-03-22T04:57:19.677Z,6.90
2023-03-22T04:58:22.053Z,6.85
2023-03-22T04:59:23.586Z,6.99
2023-03-22T05:00:25.089Z,6.88
2023-03-22T05:01:26.783Z,6.84
2023-03-22T05:02:28.233Z,6.81
2023-03-22T05:03:29.799Z,6.76
2023-03-22T05:04:31.872Z,6.74
2023-03-22T05:05:33.265Z,6.74
2023-03-22T05:06:34.746Z,6.78
2023-03-22T05:07:36.593Z,6.94
2023-03-22T05:08:38.335Z,6.87
2023-03-22T05:09:39.900Z,6.88
2023-03-22T05:10:41.957Z,6.94
2023-03-22T05:11:43.565Z,7.01
2023-03-22T05:12:45.331Z,6.92
2023-03-22T05:13:47.019Z,6.91
2023-03-22T05:14:48.478Z,6.90
2023-03-22T05:15:51.855Z,6.86
2023-03-22T05:16:53.383Z,6.94
2023-03-22T05:17:55.705Z,6.89
2023-03-22T05:18:57.310Z,6.83
2023-03-22T05:19:58.730Z,6.80
2023-03-22T05:21:03.727Z,6.87
2023-03-22T05:22:05.240Z,6.90
2023-03-22T05:23:07.237Z,6.89
2023-03-22T05:24:08.618Z,6.88
2023-03-22T05:25:10.755Z,6.86
2023-03-22T05:26:15.958Z,6.99
2023-03-22T05:27:17.494Z,6.94
2023-03-22T05:28:21.311Z,6.90
2023-03-22T05:29:22.774Z,6.88
2023-03-22T05:30:24.285Z,6.86
2023-03-22T05:31:28.575Z,6.82
2023-03-22T05:32:30.042Z,6.84
2023-03-22T05:33:31.866Z,6.83
2023-03-22T05:34:35.781Z,6.81
2023-03-22T05:35:39.496Z,6.85
2023-03-22T05:36:40.948Z,6.86
2023-03-22T05:37:42.369Z,6.82
2023-03-22T05:38:44.741Z,6.82
2023-03-22T05:39:46.179Z,6.85
2023-03-22T05:40:47.606Z,6.87
2023-03-22T05:41:49.052Z,6.89
2023-03-22T05:42:50.817Z,7.02
2023-03-22T05:43:52.306Z,7.02
2023-03-22T05:44:53.714Z,7.11
2023-03-22T05:45:55.724Z,7.13
2023-03-22T05:46:57.089Z,7.21
2023-03-22T05:47:58.617Z,7.15
2023-03-22T05:49:00.881Z,7.10
2023-03-22T05:50:02.337Z,7.07
2023-03-22T05:51:13.408Z,7.10
2023-03-22T05:52:14.885Z,7.16
2023-03-22T05:53:16.360Z,7.08
2023-03-22T05:54:17.786Z,7.05
2023-03-22T05:55:19.721Z,7.03
2023-03-22T05:56:24.124Z,7.03
2023-03-22T05:57:26.386Z,7.05
2023-03-22T05:58:31.868Z,7.01
2023-03-22T05:59:33.437Z,7.01
2023-03-22T06:00:35.693Z,7.10
2023-03-22T06:01:37.485Z,7.15
2023-03-22T06:02:40.410Z,7.16
2023-03-22T06:03:42.103Z,7.14
2023-03-22T06:04:43.531Z,7.11
2023-03-22T06:05:44.948Z,7.12
2023-03-22T06:06:46.862Z,7.09
2023-03-22T06:07:48.306Z,7.15
2023-03-22T06:08:49.787Z,7.17
2023-03-22T06:09:51.244Z,7.14
2023-03-22T06:10:53.511Z,7.16
2023-03-22T06:11:55.137Z,7.21
2023-03-22T06:12:56.693Z,7.22
2023-03-22T06:13:58.126Z,7.32
2023-03-22T06:15:00.181Z,7.34
2023-03-22T06:16:02.765Z,7.30
2023-03-22T06:17:04.290Z,7.31
2023-03-22T06:18:06.145Z,7.27
2023-03-22T06:19:07.589Z,7.42
2023-03-22T06:20:11.654Z,7.48
2023-03-22T06:21:13.095Z,7.47
2023-03-22T06:22:14.532Z,7.46
2023-03-22T06:23:16.200Z,7.44
2023-03-22T06:24:17.669Z,7.46
2023-03-22T06:25:19.097Z,7.55
2023-03-22T06:26:20.601Z,7.54
2023-03-22T06:27:22.439Z,7.57
2023-03-22T06:28:23.959Z,7.65
2023-03-22T06:29:25.484Z,7.67
2023-03-22T06:30:27.202Z,7.65
2023-03-22T06:31:29.157Z,7.62
2023-03-22T06:32:30.708Z,7.61
2023-03-22T06:33:32.164Z,7.65
2023-03-22T06:34:33.756Z,7.64
2023-03-22T06:35:36.173Z,7.67
2023-03-22T06:36:37.698Z,7.79
2023-03-22T06:37:39.106Z,7.79
2023-03-22T06:38:40.588Z,7.77
2023-03-22T06:39:42.421Z,7.79
2023-03-22T06:40:43.838Z,7.83
2023-03-22T06:41:45.505Z,7.79
2023-03-22T06:42:46.952Z,7.79
2023-03-22T06:43:48.555Z,7.94
2023-03-22T06:44:50.268Z,7.96
2023-03-22T06:45:51.754Z,7.94
2023-03-22T06:46:53.247Z,7.88
2023-03-22T06:47:54.718Z,7.91
2023-03-22T06:48:56.164Z,7.92
2023-03-22T06:49:57.978Z,7.88
2023-03-22T06:50:59.766Z,7.90
2023-03-22T06:52:01.566Z,7.90
2023-03-22T06:53:03.096Z,7.96
2023-03-22T06:54:04.677Z,7.90
2023-03-22T06:55:06.366Z,7.94
2023-03-22T06:56:08.072Z,7.99
2023-03-22T06:57:09.540Z,8.06
2023-03-22T06:58:11.251Z,8.07
2023-03-22T06:59:12.709Z,8.11
2023-03-22T07:00:15.222Z,8.15
2023-03-22T07:01:16.751Z,8.20
2023-03-22T07:02:18.209Z,8.20
2023-03-22T07:03:19.626Z,8.20
2023-03-22T07:04:21.202Z,8.22
2023-03-22T07:05:22.758Z,8.19
2023-03-22T07:06:24.967Z,8.22
2023-03-22T07:07:26.410Z,8.22
2023-03-22T07:08:27.837Z,8.29
2023-03-22T07:09:29.311Z,8.27
2023-03-22T07:10:30.761Z,8.33
2023-03-22T07:11:32.438Z,8.35
2023-03-22T07:12:33.921Z,8.43
2023-03-22T07:13:35.556Z,8.41
2023-03-22T07:14:36.988Z,8.45
2023-03-22T07:15:38.475Z,8.42
2023-03-22T07:16:39.970Z,8.40
2023-03-22T07:17:41.392Z,8.50
2023-03-22T07:18:42.810Z,8.53
2023-03-22T07:19:44.919Z,8.53
2023-03-22T07:20:46.401Z,8.60
2023-03-22T07:21:47.862Z,8.68
2023-03-22T07:22:51.445Z,8.76
2023-03-22T07:23:53.106Z,8.75
2023-03-22T07:24:58.191Z,8.79
2023-03-22T07:26:01.163Z,8.89
2023-03-22T07:27:02.568Z,8.82
2023-03-22T07:28:04.060Z,8.92
2023-03-22T07:29:05.525Z,8.97
2023-03-22T07:30:09.430Z,9.01
2023-03-22T07:31:12.490Z,9.03
2023-03-22T07:32:14.139Z,9.04
2023-03-22T07:33:15.815Z,9.06
2023-03-22T07:34:17.458Z,9.10
2023-03-22T07:35:19.141Z,9.18
2023-03-22T07:36:25.544Z,9.15
2023-03-22T07:37:27.099Z,9.15
2023-03-22T07:38:28.530Z,9.21
2023-03-22T07:39:30.902Z,9.18
2023-03-22T07:40:32.608Z,9.24
2023-03-22T07:41:34.107Z,9.26
2023-03-22T07:42:35.555Z,9.33
2023-03-22T07:43:50.852Z,9.37
2023-03-22T07:44:54.729Z,9.39
2023-03-22T07:45:57.793Z,9.50
2023-03-22T07:46:59.334Z,9.41
2023-03-22T07:48:01.073Z,9.45
2023-03-22T07:49:02.558Z,9.53
2023-03-22T07:50:04.231Z,9.63
2023-03-22T07:51:05.978Z,9.70
2023-03-22T07:52:07.781Z,9.63
2023-03-22T07:53:09.706Z,9.77
2023-03-22T07:54:14.042Z,9.94
2023-03-22T07:55:19.346Z,10.03
2023-03-22T07:56:20.830Z,10.01
2023-03-22T07:57:22.295Z,9.99
2023-03-22T07:58:23.732Z,10.13
2023-03-22T07:59:25.467Z,10.05
2023-03-22T08:00:27.159Z,10.10
2023-03-22T08:01:28.717Z,10.14
2023-03-22T08:02:30.817Z,10.20
2023-03-22T08:03:32.331Z,10.34
2023-03-22T08:04:34.447Z,10.40
2023-03-22T08:05:35.880Z,10.33
2023-03-22T08:06:37.828Z,10.54
2023-03-22T08:07:39.268Z,10.51
2023-03-22T08:08:40.842Z,10.66
2023-03-22T08:09:42.852Z,10.80
2023-03-22T08:10:48.260Z,10.96
2023-03-22T08:11:49.678Z,11.05
2023-03-22T08:12:51.223Z,10.93
2023-03-22T08:13:54.397Z,11.11
2023-03-22T08:14:55.864Z,11.25
2023-03-22T08:15:57.414Z,11.35
2023-03-22T08:16:58.831Z,11.36
2023-03-22T08:18:00.598Z,11.38
2023-03-22T08:19:02.066Z,11.44
2023-03-22T08:20:08.851Z,11.51
2023-03-22T08:21:11.068Z,11.44
2023-03-22T08:22:13.577Z,11.45
2023-03-22T08:23:16.219Z,11.53
2023-03-22T08:24:17.798Z,11.69
2023-03-22T08:25:19.415Z,11.85
2023-03-22T08:26:22.104Z,11.68
2023-03-22T08:27:23.575Z,11.82
2023-03-22T08:28:25.174Z,11.87
2023-03-22T08:29:26.726Z,12.04
2023-03-22T08:30:28.269Z,12.35
2023-03-22T08:31:29.827Z,12.68
2023-03-22T08:32:33.200Z,12.91
2023-03-22T08:33:34.618Z,13.10
2023-03-22T08:34:40.232Z,13.18
2023-03-22T08:35:42.593Z,12.98
2023-03-22T08:36:44.271Z,13.09
2023-03-22T08:37:45.792Z,12.93
2023-03-22T08:38:47.219Z,12.61
2023-03-22T08:39:48.762Z,12.66
2023-03-22T08:40:50.230Z,12.60
2023-03-22T08:41:51.666Z,12.32
2023-03-22T08:42:53.143Z,12.25
2023-03-22T08:43:54.613Z,12.22
2023-03-22T08:44:56.012Z,12.14
2023-03-22T08:45:57.738Z,12.17
2023-03-22T08:46:59.498Z,12.26
2023-03-22T08:48:01.516Z,12.36
2023-03-22T08:49:03.366Z,12.41
2023-03-22T08:50:05.196Z,12.68
2023-03-22T08:51:06.858Z,12.81
2023-03-22T08:52:08.746Z,12.96
2023-03-22T08:53:11.119Z,13.00
2023-03-22T08:54:12.897Z,13.03
2023-03-22T08:55:14.330Z,13.04
2023-03-22T08:56:16.653Z,13.14
2023-03-22T08:57:18.094Z,13.21
2023-03-22T08:58:22.574Z,13.32
2023-03-22T08:59:24.051Z,13.44
2023-03-22T09:00:25.621Z,13.55
2023-03-22T09:01:27.184Z,13.54
2023-03-22T09:02:28.746Z,13.82
2023-03-22T09:03:30.375Z,14.02
2023-03-22T09:04:31.892Z,14.39
2023-03-22T09:05:33.509Z,14.38
2023-03-22T09:06:35.115Z,14.23
2023-03-22T09:07:36.626Z,14.34
2023-03-22T09:08:38.502Z,14.43
2023-03-22T09:09:40.050Z,14.87
2023-03-22T09:10:41.549Z,14.85
2023-03-22T09:11:43.146Z,15.04
2023-03-22T09:12:44.600Z,15.15
2023-03-22T09:13:46.303Z,15.03
2023-03-22T09:14:49.736Z,15.27
2023-03-22T09:15:52.264Z,15.10
2023-03-22T09:16:53.742Z,15.29
2023-03-22T09:17:55.281Z,15.29
2023-03-22T09:18:56.692Z,15.25
2023-03-22T09:20:11.620Z,15.15
2023-03-22T09:21:13.761Z,15.14
2023-03-22T09:22:15.269Z,14.95
2023-03-22T09:23:16.851Z,14.96
2023-03-22T09:24:18.724Z,14.71
2023-03-22T09:25:21.233Z,14.70
2023-03-22T09:26:23.726Z,14.63
2023-03-22T09:27:25.250Z,14.76
2023-03-22T09:28:27.318Z,14.89
2023-03-22T09:29:28.772Z,14.72
2023-03-22T09:30:30.539Z,14.57
2023-03-22T09:31:32.146Z,14.73
2023-03-22T09:32:34.577Z,14.56
2023-03-22T09:33:41.283Z,14.62
2023-03-22T09:34:42.805Z,14.86
2023-03-22T09:35:44.295Z,14.71
2023-03-22T09:36:46.191Z,15.11
2023-03-22T09:37:49.341Z,15.30
2023-03-22T09:38:51.048Z,15.74
2023-03-22T09:39:52.453Z,15.57
2023-03-22T09:41:00.546Z,15.97
2023-03-22T09:42:05.380Z,16.27
2023-03-22T09:43:11.408Z,15.77
2023-03-22T09:44:22.357Z,15.52
2023-03-22T09:45:38.009Z,14.72
2023-03-22T09:46:46.084Z,14.88
2023-03-22T09:47:53.515Z,14.55
2023-03-22T09:48:56.295Z,14.80
2023-03-22T09:50:07.312Z,14.71
2023-03-22T09:51:37.351Z,15.04
2023-03-22T09:52:40.181Z,15.34
2023-03-22T09:53:41.665Z,15.35
2023-03-22T09:54:45.927Z,15.44
2023-03-22T09:56:03.970Z,15.33
2023-03-22T09:57:14.946Z,15.30
2023-03-22T09:58:54.031Z,15.25
2023-03-22T10:00:14.604Z,15.16
2023-03-22T10:01:17.953Z,15.45
2023-03-22T10:02:39.329Z,15.57
2023-03-22T10:04:02.974Z,15.77
2023-03-22T10:05:16.640Z,16.06
2023-03-22T10:06:21.165Z,15.97
2023-03-22T10:07:49.148Z,15.96
2023-03-22T10:08:59.410Z,16.19
2023-03-22T10:10:07.058Z,16.29
2023-03-22T10:11:27.308Z,16.48
2023-03-22T10:12:50.576Z,16.42
2023-03-22T10:14:06.241Z,17.10
2023-03-22T10:15:40.769Z,17.32
2023-03-22T10:16:44.583Z,16.94
2023-03-22T10:17:52.046Z,16.89
2023-03-22T10:19:12.889Z,16.91
2023-03-22T10:20:23.460Z,17.19
2023-03-22T10:21:26.358Z,17.38
2023-03-22T10:22:35.380Z,17.08
2023-03-22T10:24:09.583Z,17.42
2023-03-22T10:25:17.532Z,17.41
2023-03-22T10:26:31.834Z,17.50
2023-03-22T10:27:34.301Z,17.23
2023-03-22T10:28:41.170Z,17.10
2023-03-22T10:29:51.083Z,16.97
2023-03-22T10:30:55.190Z,16.13
2023-03-22T10:32:09.207Z,16.25
2023-03-22T10:33:22.518Z,16.01
2023-03-22T10:34:31.043Z,16.00
2023-03-22T10:35:32.786Z,16.19
2023-03-22T10:36:36.610Z,16.36
2023-03-22T10:37:40.952Z,16.49
2023-03-22T10:39:28.500Z,16.07
2023-03-22T10:40:33.628Z,15.92
2023-03-22T10:41:36.099Z,16.07
2023-03-22T10:42:39.454Z,15.99
2023-03-22T10:43:42.601Z,16.31
2023-03-22T10:45:01.148Z,16.26
2023-03-22T10:46:12.332Z,16.80
2023-03-22T10:47:18.130Z,17.26
2023-03-22T10:48:32.795Z,17.27
2023-03-22T10:49:41.044Z,16.88
2023-03-22T10:50:45.483Z,16.33
2023-03-22T10:51:50.557Z,16.10
2023-03-22T10:53:11.503Z,16.24
2023-03-22T10:54:15.419Z,16.73
2023-03-22T10:55:17.170Z,16.73
2023-03-22T10:56:20.825Z,16.87
2023-03-22T10:57:22.267Z,16.56
2023-03-22T10:58:32.101Z,16.67
2023-03-22T10:59:48.373Z,16.88
2023-03-22T11:00:51.813Z,16.97
2023-03-22T11:01:53.733Z,17.13
2023-03-22T11:03:00.504Z,17.19
2023-03-22T11:04:12.521Z,17.05
2023-03-22T11:05:25.766Z,16.94
2023-03-22T11:06:36.870Z,16.74
2023-03-22T11:07:44.596Z,17.12
2023-03-22T11:08:47.820Z,16.67
2023-03-22T11:09:49.649Z,16.74
2023-03-22T11:10:52.333Z,16.83
2023-03-22T11:11:59.978Z,16.80
2023-03-22T11:13:07.339Z,16.55
2023-03-22T11:14:15.702Z,16.67
2023-03-22T11:15:23.118Z,16.49
2023-03-22T11:16:25.342Z,16.50
2023-03-22T11:17:26.901Z,16.47
2023-03-22T11:18:33.832Z,16.43
2023-03-22T11:19:36.643Z,16.42
2023-03-22T11:20:52.239Z,16.64
2023-03-22T11:21:58.996Z,16.41
2023-03-22T11:23:02.981Z,16.63
2023-03-22T11:24:07.057Z,16.72
2023-03-22T11:25:34.260Z,16.82
2023-03-22T11:26:40.711Z,16.57
2023-03-22T11:28:25.956Z,16.60
2023-03-22T11:29:27.914Z,16.53
2023-03-22T11:30:30.608Z,16.36
2023-03-22T11:31:57.251Z,16.39
2023-03-22T11:33:08.040Z,16.23
2023-03-22T11:34:17.232Z,16.40
2023-03-22T11:35:26.791Z,16.42
2023-03-22T11:36:29.458Z,16.58
2023-03-22T11:37:31.409Z,16.64
2023-03-22T11:38:38.685Z,16.57
2023-03-22T11:39:49.036Z,16.56
2023-03-22T11:41:15.022Z,16.50
2023-03-22T11:42:20.745Z,16.38
2023-03-22T11:43:36.012Z,16.14
2023-03-22T11:44:37.968Z,16.14
2023-03-22T11:45:42.922Z,16.11
2023-03-22T11:47:12.342Z,16.08
2023-03-22T11:48:21.542Z,16.17
2023-03-22T11:49:27.012Z,16.04
2023-03-22T11:50:31.312Z,16.13
2023-03-22T11:51:36.052Z,16.25
2023-03-22T11:52:37.606Z,16.41
2023-03-22T11:53:42.489Z,16.17
2023-03-22T11:54:46.124Z,16.07
2023-03-22T11:55:50.148Z,16.12
2023-03-22T11:56:54.353Z,16.23
2023-03-22T11:57:56.846Z,16.28
2023-03-22T11:59:04.020Z,16.38
2023-03-22T12:00:21.411Z,16.68
2023-03-22T12:01:35.631Z,16.95
2023-03-22T12:02:51.106Z,16.88
2023-03-22T12:03:56.720Z,16.90
2023-03-22T12:05:15.368Z,17.03
2023-03-22T12:06:24.301Z,17.23
2023-03-22T12:07:28.413Z,17.51
2023-03-22T12:08:54.019Z,17.38
2023-03-22T12:10:07.561Z,17.62
2023-03-22T12:11:17.768Z,17.79
2023-03-22T12:12:30.408Z,17.70
2023-03-22T12:13:40.765Z,17.80
2023-03-22T12:15:05.860Z,17.81
2023-03-22T12:16:12.047Z,17.66
2023-03-22T12:17:26.330Z,17.67
2023-03-22T12:18:57.603Z,17.70
2023-03-22T12:20:30.034Z,17.42
2023-03-22T12:21:32.019Z,17.00
2023-03-22T12:22:37.017Z,17.12
2023-03-22T12:23:38.619Z,16.72
2023-03-22T12:24:41.304Z,16.98
2023-03-22T12:25:50.601Z,16.67
2023-03-22T12:26:55.090Z,16.80
2023-03-22T12:28:01.970Z,17.08
2023-03-22T12:29:15.465Z,16.73
2023-03-22T12:30:23.665Z,16.65
2023-03-22T12:31:31.650Z,16.96
2023-03-22T12:32:41.910Z,16.69
2023-03-22T12:33:47.773Z,16.60
2023-03-22T12:34:55.051Z,16.48
2023-03-22T12:36:04.511Z,16.53
2023-03-22T12:37:08.482Z,16.36
2023-03-22T12:38:27.922Z,16.42
2023-03-22T12:39:35.642Z,16.44
2023-03-22T12:40:41.911Z,16.56
2023-03-22T12:41:49.568Z,16.53
2023-03-22T12:43:17.749Z,16.53
2023-03-22T12:44:33.173Z,16.38
2023-03-22T12:45:41.187Z,16.50
2023-03-22T12:46:53.584Z,16.85
2023-03-22T12:48:06.504Z,16.86
2023-03-22T12:49:35.224Z,16.62
2023-03-22T12:50:43.946Z,16.74
2023-03-22T12:51:47.048Z,17.01
2023-03-22T12:52:51.311Z,17.01
2023-03-22T12:53:56.736Z,17.40
2023-03-22T12:55:00.673Z,17.25
2023-03-22T12:56:03.090Z,17.25
2023-03-22T12:57:06.357Z,17.30
2023-03-22T12:58:10.192Z,17.49
2023-03-22T12:59:20.509Z,17.85
2023-03-22T13:00:28.477Z,17.66
2023-03-22T13:01:52.190Z,17.50
2023-03-22T13:02:59.648Z,17.65
2023-03-22T13:04:36.064Z,17.47
2023-03-22T13:05:37.800Z,17.22
2023-03-22T13:06:43.992Z,16.95
2023-03-22T13:07:48.126Z,16.78
2023-03-22T13:09:15.328Z,16.30
2023-03-22T13:10:32.819Z,16.65
2023-03-22T13:11:35.234Z,16.65
2023-03-22T13:12:36.664Z,16.58
2023-03-22T13:13:46.603Z,16.55
2023-03-22T13:14:50.960Z,16.72
2023-03-22T13:16:11.011Z,16.64
2023-03-22T13:17:13.256Z,16.48
2023-03-22T13:18:36.333Z,16.74
2023-03-22T13:19:37.874Z,16.89
2023-03-22T13:20:41.028Z,16.87
2023-03-22T13:21:43.310Z,17.00
2023-03-22T13:22:47.749Z,17.05
2023-03-22T13:24:21.369Z,16.81
2023-03-22T13:25:50.516Z,16.78
2023-03-22T13:26:54.196Z,16.89
2023-03-22T13:27:59.793Z,16.80
2023-03-22T13:29:09.725Z,16.53
2023-03-22T13:30:20.299Z,16.71
2023-03-22T13:31:36.516Z,16.84
2023-03-22T13:32:39.529Z,16.69
2023-03-22T13:33:41.188Z,16.61
2023-03-22T13:34:49.071Z,16.64
2023-03-22T13:35:54.223Z,16.77
2023-03-22T13:36:57.170Z,17.22
2023-03-22T13:38:07.603Z,17.37
2023-03-22T13:39:12.358Z,17.64
2023-03-22T13:40:49.703Z,17.69
2023-03-22T13:42:22.209Z,17.64
2023-03-22T13:43:43.849Z,17.22
2023-03-22T13:44:51.562Z,17.31
2023-03-22T13:46:05.479Z,16.86
2023-03-22T13:47:59.373Z,16.78
2023-03-22T13:49:04.196Z,16.57
2023-03-22T13:50:12.603Z,16.62
2023-03-22T13:51:19.302Z,16.53
2023-03-22T13:52:27.275Z,16.63
2023-03-22T13:53:31.140Z,16.56
2023-03-22T13:54:48.237Z,16.57
2023-03-22T13:55:51.381Z,16.67
2023-03-22T13:57:00.143Z,16.60
2023-03-22T13:58:02.107Z,16.75
2023-03-22T13:59:04.994Z,16.84
2023-03-22T14:00:42.370Z,16.99
2023-03-22T14:01:50.182Z,16.89
2023-03-22T14:02:51.911Z,16.84
2023-03-22T14:03:57.089Z,17.13
2023-03-22T14:05:01.904Z,17.31
2023-03-22T14:06:16.117Z,17.26
2023-03-22T14:07:26.762Z,17.56
2023-03-22T14:08:30.304Z,17.33
2023-03-22T14:09:38.441Z,17.10
2023-03-22T14:10:46.029Z,16.97
2023-03-22T14:12:08.386Z,17.01
2023-03-22T14:13:33.233Z,16.71
2023-03-22T14:14:42.989Z,16.75
2023-03-22T14:15:53.912Z,16.88
2023-03-22T14:17:02.846Z,17.23
2023-03-22T14:18:12.552Z,17.09
2023-03-22T14:19:20.182Z,17.04
2023-03-22T14:20:24.224Z,16.90
2023-03-22T14:21:35.956Z,16.95
